createdAt,value
2022-11-27T00:01:22.466Z,1.00
2022-11-27T00:03:49.871Z,1.00
2022-11-27T00:06:19.755Z,1.00
2022-11-27T00:08:47.115Z,1.00
2022-11-27T00:11:16.833Z,1.00
2022-11-27T00:13:45.448Z,1.00
2022-11-27T00:16:13.437Z,1.00
2022-11-27T00:18:40.801Z,1.00
2022-11-27T00:21:11.480Z,3.10
2022-11-27T00:23:38.705Z,13.40
2022-11-27T00:26:06.654Z,18.90
2022-11-27T00:28:33.962Z,30.00
2022-11-27T00:31:02.400Z,32.60
2022-11-27T00:33:29.523Z,40.80
2022-11-27T00:35:56.353Z,44.20
2022-11-27T00:38:23.158Z,42.70
2022-11-27T00:40:49.867Z,43.00
2022-11-27T00:43:16.601Z,54.40
2022-11-27T00:45:43.325Z,52.10
2022-11-27T00:48:10.030Z,47.80
2022-11-27T00:50:36.708Z,72.60
2022-11-27T00:53:03.420Z,48.50
2022-11-27T00:55:30.123Z,42.10
2022-11-27T00:57:56.843Z,28.70
2022-11-27T01:00:24.953Z,14.60
2022-11-27T01:02:51.703Z,5.50
2022-11-27T01:05:18.529Z,3.70
2022-11-27T01:07:45.344Z,1.00
2022-11-27T01:10:12.258Z,1.00
2022-11-27T01:12:39.081Z,1.00
2022-11-27T01:15:06.242Z,1.00
2022-11-27T01:17:32.961Z,1.00
2022-11-27T01:19:59.695Z,1.00
2022-11-27T01:22:26.422Z,1.00
2022-11-27T01:24:53.123Z,1.00
2022-11-27T01:27:19.846Z,1.00
2022-11-27T01:29:46.578Z,1.00
2022-11-27T01:32:13.530Z,1.00
2022-11-27T01:34:40.489Z,1.00
2022-11-27T01:37:07.279Z,1.00
2022-11-27T01:39:34.043Z,1.00
2022-11-27T01:42:00.849Z,1.00
2022-11-27T01:44:27.492Z,1.00
2022-11-27T01:47:07.106Z,1.00
2022-11-27T01:49:45.955Z,1.00
2022-11-27T01:52:32.913Z,1.00
2022-11-27T01:55:48.868Z,1.00
2022-11-27T01:58:21.438Z,1.00
2022-11-27T02:00:48.258Z,1.00
2022-11-27T02:03:16.199Z,1.00
2022-11-27T02:05:43.049Z,1.00
2022-11-27T02:08:12.647Z,1.00
2022-11-27T02:10:54.580Z,1.00
2022-11-27T02:13:35.558Z,1.00
2022-11-27T02:16:45.127Z,1.00
2022-11-27T02:19:26.935Z,1.00
2022-11-27T02:22:04.682Z,1.00
2022-11-27T02:24:42.969Z,1.00
2022-11-27T02:27:28.316Z,1.00
2022-11-27T02:29:59.018Z,1.00
2022-11-27T02:32:40.535Z,1.00
2022-11-27T02:35:18.352Z,1.00
2022-11-27T02:38:20.854Z,1.00
2022-11-27T02:40:55.440Z,1.00
2022-11-27T02:43:28.393Z,1.00
2022-11-27T02:45:57.782Z,1.00
2022-11-27T02:48:31.085Z,1.00
2022-11-27T02:50:57.789Z,1.00
2022-11-27T02:53:33.989Z,1.00
2022-11-27T02:56:03.366Z,1.00
2022-11-27T02:58:30.735Z,1.00
2022-11-27T03:00:59.883Z,1.00
2022-11-27T03:03:34.031Z,1.00
2022-11-27T03:06:08.636Z,1.00
2022-11-27T03:09:02.383Z,1.00
2022-11-27T03:11:30.847Z,1.00
2022-11-27T03:14:02.118Z,1.00
2022-11-27T03:16:34.980Z,1.00
2022-11-27T03:19:23.229Z,1.00
2022-11-27T03:21:58.662Z,1.00
2022-11-27T03:24:26.721Z,1.00
2022-11-27T03:26:53.491Z,1.00
2022-11-27T03:29:31.882Z,1.00
2022-11-27T03:31:59.182Z,1.00
2022-11-27T03:34:26.435Z,1.00
2022-11-27T03:36:53.133Z,1.00
2022-11-27T03:39:23.818Z,1.00
2022-11-27T03:41:58.372Z,1.00
2022-11-27T03:44:42.159Z,1.00
2022-11-27T03:47:34.123Z,1.00
2022-11-27T03:50:16.403Z,1.00
2022-11-27T03:52:54.186Z,1.00
2022-11-27T03:55:41.166Z,1.00
2022-11-27T03:58:28.962Z,1.00
2022-11-27T04:00:57.399Z,1.00
2022-11-27T04:03:27.602Z,1.00
2022-11-27T04:05:54.507Z,1.00
2022-11-27T04:08:21.483Z,4.80
2022-11-27T04:10:48.243Z,17.00
2022-11-27T04:13:15.267Z,31.10
2022-11-27T04:15:42.272Z,40.30
2022-11-27T04:18:09.174Z,41.30
2022-11-27T04:20:35.939Z,43.60
2022-11-27T04:23:02.879Z,50.90
2022-11-27T04:25:29.681Z,51.60
2022-11-27T04:27:56.483Z,53.30
2022-11-27T04:30:23.633Z,52.80
2022-11-27T04:32:50.318Z,62.60
2022-11-27T04:35:17.408Z,75.70
2022-11-27T04:37:44.221Z,93.70
2022-11-27T04:40:11.427Z,94.10
2022-11-27T04:42:38.107Z,99.90
2022-11-27T04:45:05.350Z,99.90
2022-11-27T04:47:32.059Z,99.90
2022-11-27T04:49:58.761Z,99.90
2022-11-27T04:52:25.454Z,99.90
2022-11-27T04:54:56.814Z,99.90
2022-11-27T04:57:26.574Z,99.90
2022-11-27T04:59:53.266Z,99.90
2022-11-27T05:02:20.028Z,99.90
2022-11-27T05:04:46.702Z,99.90
2022-11-27T05:07:13.469Z,99.90
2022-11-27T05:09:40.267Z,99.90
2022-11-27T05:12:07.059Z,99.90
2022-11-27T05:14:33.997Z,99.90
2022-11-27T05:17:00.773Z,89.10
2022-11-27T05:19:29.937Z,92.70
2022-11-27T05:21:57.037Z,94.40
2022-11-27T05:24:26.406Z,99.30
2022-11-27T05:26:53.178Z,98.30
2022-11-27T05:29:20.734Z,99.90
2022-11-27T05:31:47.748Z,99.90
2022-11-27T05:34:15.129Z,99.90
2022-11-27T05:36:43.021Z,99.90
2022-11-27T05:39:10.612Z,97.20
2022-11-27T05:41:39.297Z,94.50
2022-11-27T05:44:06.536Z,88.30
2022-11-27T05:46:33.699Z,83.70
2022-11-27T05:49:00.455Z,61.70
2022-11-27T05:51:27.203Z,81.00
2022-11-27T05:53:54.010Z,99.90
2022-11-27T05:56:20.826Z,94.80
2022-11-27T05:58:48.911Z,95.20
2022-11-27T06:01:17.910Z,99.90
2022-11-27T06:03:44.748Z,99.90
2022-11-27T06:06:17.817Z,99.90
2022-11-27T06:08:45.287Z,99.90
2022-11-27T06:11:16.366Z,99.90
2022-11-27T06:13:44.146Z,99.90
2022-11-27T06:16:19.746Z,99.90
2022-11-27T06:18:50.627Z,99.90
2022-11-27T06:21:17.555Z,99.90
2022-11-27T06:23:44.723Z,99.90
2022-11-27T06:26:20.233Z,99.90
2022-11-27T06:28:47.958Z,99.90
2022-11-27T06:31:20.926Z,99.90
2022-11-27T06:33:49.440Z,99.90
2022-11-27T06:36:17.139Z,99.90
2022-11-27T06:38:44.495Z,99.90
2022-11-27T06:41:13.897Z,99.90
2022-11-27T06:43:40.764Z,99.90
2022-11-27T06:46:11.201Z,99.90
2022-11-27T06:48:38.036Z,99.90
2022-11-27T06:51:06.903Z,99.90
2022-11-27T06:53:36.097Z,99.90
2022-11-27T06:56:04.699Z,99.90
2022-11-27T06:58:31.537Z,1.00
2022-11-27T07:00:59.847Z,1.00
2022-11-27T07:03:29.831Z,1.00
2022-11-27T07:06:03.918Z,1.00
2022-11-27T07:08:31.036Z,1.00
2022-11-27T07:11:07.288Z,1.00
2022-11-27T07:13:34.303Z,1.00
2022-11-27T07:16:07.127Z,1.00
2022-11-27T07:18:42.433Z,1.00
2022-11-27T07:21:10.053Z,1.00
2022-11-27T07:23:37.379Z,1.00
2022-11-27T07:26:12.691Z,1.00
2022-11-27T07:28:40.050Z,1.00
2022-11-27T07:31:06.862Z,1.00
2022-11-27T07:33:33.687Z,1.00
2022-11-27T07:36:05.585Z,1.00
2022-11-27T07:38:32.851Z,1.00
2022-11-27T07:41:01.814Z,1.00
2022-11-27T07:43:29.199Z,1.00
2022-11-27T07:45:56.731Z,1.00
2022-11-27T07:48:23.720Z,1.00
2022-11-27T07:50:50.680Z,1.00
2022-11-27T07:53:17.495Z,1.00
2022-11-27T07:55:44.150Z,99.90
2022-11-27T07:58:10.961Z,99.90
2022-11-27T08:00:38.770Z,99.90
2022-11-27T08:03:05.551Z,99.90
2022-11-27T08:05:35.499Z,99.90
2022-11-27T08:08:04.225Z,99.90
2022-11-27T08:10:34.694Z,99.90
2022-11-27T08:13:01.418Z,99.90
2022-11-27T08:15:28.079Z,99.90
2022-11-27T08:17:54.819Z,99.90
2022-11-27T08:20:21.614Z,99.90
2022-11-27T08:22:48.374Z,99.90
2022-11-27T08:25:15.637Z,99.90
2022-11-27T08:27:42.354Z,99.90
2022-11-27T08:30:09.836Z,99.90
2022-11-27T08:32:39.950Z,99.90
2022-11-27T08:35:07.475Z,99.90
2022-11-27T08:37:34.739Z,99.90
2022-11-27T08:40:01.702Z,99.90
2022-11-27T08:42:28.577Z,99.90
2022-11-27T08:44:55.365Z,99.90
2022-11-27T08:47:22.136Z,99.90
2022-11-27T08:49:48.892Z,1.00
2022-11-27T08:52:15.613Z,1.00
2022-11-27T08:54:43.179Z,1.00
2022-11-27T08:57:10.195Z,99.90
2022-11-27T08:59:36.897Z,99.90
2022-11-27T09:02:03.666Z,99.90
2022-11-27T09:04:30.465Z,99.90
2022-11-27T09:07:06.615Z,99.90
2022-11-27T09:09:33.297Z,99.90
2022-11-27T09:12:00.039Z,99.90
2022-11-27T09:14:26.807Z,99.90
2022-11-27T09:16:53.940Z,99.90
2022-11-27T09:19:21.643Z,99.90
2022-11-27T09:21:50.747Z,99.90
2022-11-27T09:24:17.500Z,99.90
2022-11-27T09:26:44.751Z,99.90
2022-11-27T09:29:11.498Z,99.90
2022-11-27T09:31:38.472Z,99.90
2022-11-27T09:34:05.724Z,99.90
2022-11-27T09:36:32.512Z,99.90
2022-11-27T09:38:59.516Z,99.90
2022-11-27T09:41:42.047Z,99.90
2022-11-27T09:44:50.189Z,99.90
2022-11-27T09:47:30.802Z,99.90
2022-11-27T09:50:13.505Z,99.90
2022-11-27T09:52:56.567Z,99.90
2022-11-27T09:55:30.007Z,99.90
2022-11-27T09:58:26.315Z,99.90
2022-11-27T10:00:53.048Z,99.90
2022-11-27T10:03:27.447Z,99.90
2022-11-27T10:06:03.268Z,99.90
2022-11-27T10:08:55.428Z,99.90
2022-11-27T10:11:25.215Z,99.90
2022-11-27T10:14:10.478Z,99.90
2022-11-27T10:17:07.773Z,99.90
2022-11-27T10:19:57.883Z,99.90
2022-11-27T10:22:50.385Z,99.90
2022-11-27T10:25:24.211Z,99.90
2022-11-27T10:28:13.661Z,99.90
2022-11-27T10:30:55.829Z,99.90
2022-11-27T10:33:28.029Z,99.90
2022-11-27T10:35:54.908Z,99.90
2022-11-27T10:38:26.510Z,99.90
2022-11-27T10:41:18.690Z,99.90
2022-11-27T10:44:01.768Z,99.90
2022-11-27T10:46:32.090Z,99.90
2022-11-27T10:48:58.849Z,99.90
2022-11-27T10:51:36.961Z,99.90
2022-11-27T10:54:07.151Z,99.90
2022-11-27T10:56:53.970Z,99.90
2022-11-27T10:59:34.852Z,99.90
2022-11-27T11:02:03.272Z,99.90
2022-11-27T11:04:37.870Z,99.90
2022-11-27T11:07:23.259Z,99.90
2022-11-27T11:09:50.140Z,99.90
2022-11-27T11:12:20.940Z,99.90
2022-11-27T11:14:59.426Z,99.90
2022-11-27T11:17:37.184Z,99.90
2022-11-27T11:20:20.763Z,99.90
2022-11-27T11:22:48.542Z,97.90
2022-11-27T11:25:20.239Z,99.90
2022-11-27T11:27:49.775Z,92.80
2022-11-27T11:30:29.930Z,88.10
2022-11-27T11:33:02.213Z,92.40
2022-11-27T11:35:34.560Z,91.70
2022-11-27T11:38:06.710Z,90.90
2022-11-27T11:40:35.697Z,88.70
2022-11-27T11:43:06.546Z,72.20
2022-11-27T11:45:34.708Z,74.90
2022-11-27T11:48:17.782Z,74.60
2022-11-27T11:51:00.390Z,79.70
2022-11-27T11:53:37.749Z,72.10
2022-11-27T11:56:20.026Z,67.20
2022-11-27T11:58:52.669Z,71.70
2022-11-27T12:01:45.923Z,77.60
2022-11-27T12:04:30.912Z,66.80
2022-11-27T12:07:09.319Z,70.30
2022-11-27T12:09:44.858Z,67.50
2022-11-27T12:12:56.404Z,68.30
2022-11-27T12:15:29.662Z,62.10
2022-11-27T12:18:11.999Z,65.00
2022-11-27T12:20:53.724Z,66.20
2022-11-27T12:23:41.755Z,70.30
2022-11-27T12:26:18.158Z,60.80
2022-11-27T12:28:58.972Z,88.20
2022-11-27T12:32:14.218Z,54.80
2022-11-27T12:34:47.992Z,57.90
2022-11-27T12:37:42.299Z,59.10
2022-11-27T12:40:32.440Z,59.50
2022-11-27T12:43:24.443Z,58.10
2022-11-27T12:46:03.794Z,50.40
2022-11-27T12:48:53.429Z,50.50
2022-11-27T12:51:59.044Z,54.80
2022-11-27T12:54:36.524Z,60.50
2022-11-27T12:57:10.758Z,52.80
2022-11-27T12:59:47.515Z,52.10
2022-11-27T13:02:38.129Z,46.60
2022-11-27T13:05:23.163Z,54.70
2022-11-27T13:08:05.103Z,58.50
2022-11-27T13:10:38.222Z,55.80
2022-11-27T13:13:12.975Z,52.20
2022-11-27T13:15:50.276Z,52.70
2022-11-27T13:18:36.056Z,50.10
2022-11-27T13:21:07.891Z,51.60
2022-11-27T13:23:35.193Z,52.40
2022-11-27T13:26:06.089Z,47.90
2022-11-27T13:28:41.933Z,47.10
2022-11-27T13:31:18.508Z,49.60
2022-11-27T13:33:46.591Z,49.40
2022-11-27T13:36:26.250Z,46.60
2022-11-27T13:38:57.785Z,45.40
2022-11-27T13:41:39.904Z,46.60
2022-11-27T13:44:24.205Z,42.50
2022-11-27T13:46:54.843Z,39.80
2022-11-27T13:49:27.426Z,39.60
2022-11-27T13:52:05.174Z,38.50
2022-11-27T13:54:31.972Z,39.70
2022-11-27T13:57:13.331Z,39.70
2022-11-27T13:59:40.129Z,40.80
2022-11-27T14:02:08.641Z,39.40
2022-11-27T14:04:35.965Z,42.00
2022-11-27T14:07:09.638Z,35.90
2022-11-27T14:09:58.281Z,39.70
2022-11-27T14:12:32.236Z,39.30
2022-11-27T14:15:21.467Z,39.70
2022-11-27T14:17:52.377Z,41.10
2022-11-27T14:20:30.106Z,38.70
2022-11-27T14:23:14.264Z,40.60
2022-11-27T14:25:41.595Z,41.30
2022-11-27T14:28:21.839Z,39.10
2022-11-27T14:31:01.489Z,38.10
2022-11-27T14:33:31.203Z,38.50
2022-11-27T14:36:00.293Z,37.80
2022-11-27T14:38:28.893Z,37.10
2022-11-27T14:41:17.438Z,37.40
2022-11-27T14:43:44.188Z,37.30
2022-11-27T14:46:20.587Z,35.90
2022-11-27T14:48:58.026Z,38.20
2022-11-27T14:51:27.108Z,36.80
2022-11-27T14:54:05.693Z,36.10
2022-11-27T14:56:35.175Z,32.30
2022-11-27T14:59:04.127Z,31.70
2022-11-27T15:01:32.931Z,32.70
2022-11-27T15:04:02.410Z,37.80
2022-11-27T15:06:35.793Z,38.70
2022-11-27T15:09:30.208Z,39.60
2022-11-27T15:12:09.104Z,37.70
2022-11-27T15:14:36.082Z,35.20
2022-11-27T15:17:02.942Z,35.50
2022-11-27T15:19:36.411Z,27.90
2022-11-27T15:22:03.907Z,27.60
2022-11-27T15:24:36.126Z,25.60
2022-11-27T15:27:14.946Z,23.70
2022-11-27T15:30:01.189Z,21.10
2022-11-27T15:32:34.647Z,19.40
2022-11-27T15:35:12.072Z,19.30
2022-11-27T15:37:39.198Z,14.40
2022-11-27T15:40:24.855Z,11.10
2022-11-27T15:42:51.535Z,10.60
2022-11-27T15:45:18.637Z,7.10
2022-11-27T15:47:45.454Z,7.30
2022-11-27T15:50:16.975Z,5.60
2022-11-27T15:52:43.946Z,6.10
2022-11-27T15:55:15.815Z,3.80
2022-11-27T15:57:42.962Z,4.00
2022-11-27T16:00:10.760Z,3.00
2022-11-27T16:02:40.815Z,3.40
2022-11-27T16:05:08.732Z,2.50
2022-11-27T16:07:35.592Z,1.00
2022-11-27T16:10:02.328Z,16.50
2022-11-27T16:12:29.038Z,1.00
2022-11-27T16:14:55.823Z,1.00
2022-11-27T16:17:22.572Z,1.00
2022-11-27T16:19:49.344Z,1.00
2022-11-27T16:22:16.137Z,1.00
2022-11-27T16:24:43.221Z,1.20
2022-11-27T16:27:10.294Z,1.00
2022-11-27T16:29:37.019Z,1.00
2022-11-27T16:32:03.996Z,1.00
2022-11-27T16:34:30.934Z,1.00
2022-11-27T16:36:57.750Z,1.00
2022-11-27T16:39:25.355Z,1.00
2022-11-27T16:41:52.400Z,1.00
2022-11-27T16:44:19.960Z,1.00
2022-11-27T16:46:46.767Z,1.80
2022-11-27T16:49:13.627Z,1.00
2022-11-27T16:51:44.782Z,1.00
2022-11-27T16:54:18.310Z,1.00
2022-11-27T16:56:46.318Z,1.00
2022-11-27T16:59:14.577Z,1.00
2022-11-27T17:01:42.574Z,1.00
2022-11-27T17:04:16.315Z,1.00
2022-11-27T17:06:43.032Z,1.00
2022-11-27T17:09:09.776Z,1.00
2022-11-27T17:11:40.841Z,1.00
2022-11-27T17:14:08.982Z,1.00
2022-11-27T17:16:37.077Z,1.00
2022-11-27T17:19:04.440Z,1.00
2022-11-27T17:21:33.936Z,1.00
2022-11-27T17:24:03.942Z,1.00
2022-11-27T17:26:38.537Z,1.00
2022-11-27T17:29:05.258Z,1.00
2022-11-27T17:31:33.662Z,1.00
2022-11-27T17:34:01.044Z,1.00
2022-11-27T17:36:36.516Z,1.00
2022-11-27T17:39:05.812Z,1.00
2022-11-27T17:41:33.015Z,1.00
2022-11-27T17:44:00.355Z,1.00
2022-11-27T17:46:28.800Z,1.00
2022-11-27T17:48:59.141Z,1.00
2022-11-27T17:51:28.065Z,1.00
2022-11-27T17:53:54.891Z,1.00
2022-11-27T17:56:23.452Z,1.00
2022-11-27T17:58:50.455Z,1.00
2022-11-27T18:01:24.606Z,1.00
2022-11-27T18:03:54.484Z,10.00
2022-11-27T18:06:22.797Z,1.00
2022-11-27T18:08:49.906Z,1.00
2022-11-27T18:11:25.378Z,1.00
2022-11-27T18:13:52.614Z,1.00
2022-11-27T18:16:23.624Z,1.00
2022-11-27T18:18:51.093Z,1.00
2022-11-27T18:21:20.248Z,1.00
2022-11-27T18:24:21.986Z,1.00
2022-11-27T18:29:22.420Z,1.00
2022-11-27T18:31:50.781Z,1.00
2022-11-27T18:34:17.923Z,1.00
2022-11-27T18:36:45.886Z,1.00
2022-11-27T18:39:13.288Z,1.00
2022-11-27T18:41:40.794Z,1.00
2022-11-27T18:44:08.745Z,1.00
2022-11-27T18:46:35.538Z,1.00
2022-11-27T18:49:02.546Z,1.00
2022-11-27T18:51:29.286Z,1.00
2022-11-27T18:53:57.956Z,1.00
2022-11-27T18:56:29.542Z,1.00
2022-11-27T18:59:05.581Z,1.00
2022-11-27T19:01:40.968Z,1.00
2022-11-27T19:04:10.880Z,1.00
2022-11-27T19:06:38.580Z,1.00
2022-11-27T19:09:06.508Z,1.00
2022-11-27T19:11:34.805Z,1.00
2022-11-27T19:14:02.555Z,1.00
2022-11-27T19:16:32.916Z,1.00
2022-11-27T19:19:02.490Z,1.00
2022-11-27T19:21:31.129Z,1.00
2022-11-27T19:23:59.962Z,1.00
2022-11-27T19:26:33.670Z,1.00
2022-11-27T19:29:03.581Z,1.00
2022-11-27T19:31:32.891Z,1.00
2022-11-27T19:34:02.083Z,1.00
2022-11-27T19:36:30.923Z,1.00
2022-11-27T19:39:07.374Z,1.00
2022-11-27T19:41:34.862Z,1.00
2022-11-27T19:44:03.510Z,1.00
2022-11-27T19:46:32.624Z,1.00
2022-11-27T19:49:02.218Z,1.00
2022-11-27T19:51:33.001Z,1.00
2022-11-27T19:54:05.681Z,1.00
2022-11-27T19:56:37.362Z,1.00
2022-11-27T19:59:04.396Z,1.00
2022-11-27T20:01:31.488Z,1.00
2022-11-27T20:03:58.895Z,1.00
2022-11-27T20:06:27.729Z,1.00
2022-11-27T20:09:00.294Z,1.00
2022-11-27T20:11:34.259Z,1.00
2022-11-27T20:14:02.463Z,1.00
2022-11-27T20:16:33.696Z,1.00
2022-11-27T20:19:02.581Z,1.00
2022-11-27T20:21:29.573Z,1.00
2022-11-27T20:23:57.552Z,1.00
2022-11-27T20:26:27.295Z,1.00
2022-11-27T20:28:54.520Z,1.00
2022-11-27T20:31:30.005Z,1.00
2022-11-27T20:34:03.506Z,1.00
2022-11-27T20:36:33.976Z,1.00
2022-11-27T20:39:01.808Z,1.00
2022-11-27T20:41:29.541Z,1.00
2022-11-27T20:43:59.351Z,1.00
2022-11-27T20:46:26.932Z,1.00
2022-11-27T20:48:54.580Z,1.00
2022-11-27T20:51:27.411Z,1.00
2022-11-27T20:53:56.554Z,1.00
2022-11-27T20:56:24.261Z,1.00
2022-11-27T20:58:51.134Z,1.00
2022-11-27T21:01:19.693Z,1.30
2022-11-27T21:03:48.751Z,2.30
2022-11-27T21:06:16.626Z,2.20
2022-11-27T21:08:43.397Z,4.10
2022-11-27T21:11:24.841Z,2.90
2022-11-27T21:14:01.139Z,7.00
2022-11-27T21:16:32.594Z,10.00
2022-11-27T21:19:02.999Z,12.20
2022-11-27T21:21:30.787Z,14.00
2022-11-27T21:23:59.383Z,17.60
2022-11-27T21:26:26.950Z,19.70
2022-11-27T21:28:53.945Z,20.30
2022-11-27T21:31:27.434Z,26.30
2022-11-27T21:33:59.998Z,29.60
2022-11-27T21:36:30.783Z,33.30
2022-11-27T21:38:58.700Z,34.30
2022-11-27T21:41:26.564Z,34.30
2022-11-27T21:43:58.862Z,37.70
2022-11-27T21:46:28.685Z,44.90
2022-11-27T21:49:00.070Z,44.40
2022-11-27T21:51:29.638Z,41.60
2022-11-27T21:53:58.959Z,39.30
2022-11-27T21:56:28.494Z,41.30
2022-11-27T21:58:55.646Z,45.70
2022-11-27T22:01:24.096Z,47.10
2022-11-27T22:03:54.025Z,55.60
2022-11-27T22:06:21.963Z,59.40
2022-11-27T22:08:50.307Z,64.20
2022-11-27T22:11:21.259Z,60.00
2022-11-27T22:13:48.971Z,56.80
2022-11-27T22:16:17.354Z,53.10
2022-11-27T22:18:45.326Z,57.70
2022-11-27T22:21:13.645Z,57.10
2022-11-27T22:23:41.941Z,56.90
2022-11-27T22:26:11.587Z,52.20
2022-11-27T22:28:38.691Z,49.20
2022-11-27T22:31:16.872Z,47.40
2022-11-27T22:33:44.676Z,46.90
2022-11-27T22:36:23.613Z,43.20
2022-11-27T22:38:53.189Z,45.90
2022-11-27T22:41:22.400Z,43.20
2022-11-27T22:43:49.831Z,41.50
2022-11-27T22:46:28.967Z,42.10
2022-11-27T22:49:00.272Z,41.60
2022-11-27T22:51:29.899Z,45.70
2022-11-27T22:53:57.624Z,48.50
2022-11-27T22:56:24.708Z,51.30
2022-11-27T22:59:06.089Z,52.40
2022-11-27T23:01:40.848Z,54.80
2022-11-27T23:04:07.749Z,52.20
2022-11-27T23:06:34.567Z,54.50
2022-11-27T23:09:01.388Z,50.10
2022-11-27T23:11:28.709Z,50.80
2022-11-27T23:13:57.605Z,51.40
2022-11-27T23:16:27.385Z,51.20
2022-11-27T23:18:54.218Z,41.60
2022-11-27T23:21:22.935Z,36.30
2022-11-27T23:23:50.095Z,29.90
2022-11-27T23:26:20.499Z,28.60
2022-11-27T23:28:49.153Z,29.20
2022-11-27T23:31:30.033Z,28.30
2022-11-27T23:33:58.177Z,31.40
2022-11-27T23:36:25.208Z,27.60
2022-11-27T23:38:51.923Z,22.00
2022-11-27T23:41:24.618Z,16.90
2022-11-27T23:43:52.573Z,17.70
2022-11-27T23:46:22.131Z,14.90
2022-11-27T23:48:49.300Z,12.70
2022-11-27T23:51:18.649Z,13.70
2022-11-27T23:53:46.511Z,15.70
2022-11-27T23:56:25.376Z,14.10
2022-11-27T23:58:54.447Z,14.30
